Salter Path, NC (28575)

10:23 PM EDT on September 04, 2015 (GMT -0400)
Oceanfront Court | | Change Station
CLOSE
Current Station
Personal Weather Station
Location: Indian Beach, NC
Elevation: 13 ft
Nearby Weather Stations

Elev 13 ft 34.69 °N, 76.90 °W | Updated 14 seconds ago

Mostly Cloudy
Mostly Cloudy
79.0 °F
Feels Like 82 °F
N
9.6
Wind Variable Wind from NNE
Gusts 11.0 mph

Today
High -- | Low -- °F
--% Chance of Precip.
Yesterday
High -- | Low -- °F
Precip. -- in
6:42 AM 7:30 PM
Waning Gibbous, 53% visible
Pressure 30.03 in
Visibility 10.0 miles
Clouds Few 2300 ft
Few 4600 ft
Heat Index 82 °F
Dew Point 73 °F
Humidity 83%
Rainfall in
Snow Depth Not available.
UV 0 out of 12
Pollen 8.20 out of 12
Air Quality Not available.
Flu Activity Not available.
METAR KNJM 050157Z AUTO 03005KT 10SM FEW023 FEW046 25/20 A3002 RMK AO2 SLP167 T02500200
Pressure 30.03 in
Visibility 10.0 miles
Clouds Few 2300 ft
Few 4600 ft
Heat Index 82 °F
Dew Point 73 °F
Humidity 83%
Rainfall in
Snow Depth Not available.
UV 0 out of 12
Pollen 8.20 out of 12
Air Quality Not available.
Flu Activity Not available.
METAR KNJM 050157Z AUTO 03005KT 10SM FEW023 FEW046 25/20 A3002 RMK AO2 SLP167 T02500200

10-Day Weather Forecast

×

Almanac

Astronomy

Sep. 04, 2015 Rise Set
Actual Time
Civil Twilight
Nautical Twilight
Astronomical Twilight
Moon
Length of Visible Light
Length of Day
Tomorrow will be .
, % of the Moon is Illuminated

Today's Extremes

State Highs State Lows

Community

WunderPhotos

Upload Photos

1,852,391 photos uploaded!

WunderBlogs® & News

Nearby

Air Quality

  Air Quality AQ Index Pollutant
Not available.

Snow Depth

Station Depth Elevation

Earthquake Activity

City Distance Mag. Time & Date
Minimum magnitude displayed is 2.5.

Coastal Water Temperatures

Place Temperature

Stations

Nearby Weather Stations

Station Location Temp. Windchill Dew Point Humidity Wind Precip. Elev Updated Type